Pos First Name Last Name YOB Country Start
Num
Time Swim T1 Bike T2 Run
1 Niina Kishimoto 1995 JPN 1 01:00:44 00:10:44 00:00:49 00:30:27 00:00:34 00:18:10
2 Konami Ushioda 1997 JPN 7 01:00:56 00:10:46 00:00:50 00:30:26 00:00:36 00:18:18
3 Ji Yeon Kim 1990 KOR 4 01:01:02 00:10:32 00:00:46 00:30:43 00:00:32 00:18:29
4 Gyuri Kim 1998 KOR 6 01:01:08 00:10:47 00:00:55 00:30:20 00:00:36 00:18:30
5 Sarika Nakayama 2000 JPN 11 01:01:13 00:10:43 00:00:50 00:30:30 00:00:34 00:18:36
6 Hye Rim Jeong 1999 KOR 8 01:01:29 00:10:43 00:00:52 00:30:28 00:00:44 00:18:42
7 Charlotte Derbyshire 2001 AUS 20 01:01:36 00:10:44 00:00:56 00:30:21 00:00:32 00:19:03
8 Misaki Kago 1996 JPN 3 01:01:45 00:10:46 00:00:52 00:30:25 00:00:32 00:19:10
9 Yurie Kato 1987 JPN 2 01:01:52 00:10:46 00:00:51 00:30:25 00:00:38 00:19:12
10 Miyu Sakai 1999 JPN 15 01:01:55 00:10:46 00:00:51 00:30:24 00:00:30 00:19:24
11 Yuki Sugihara 1998 JPN 12 01:02:05 00:10:50 00:00:53 00:30:18 00:00:34 00:19:30
12 Minori Ikeno 1997 JPN 18 01:02:28 00:10:10 00:00:49 00:31:03 00:00:30 00:19:56
13 Fuka Sega 1998 JPN 9 01:02:45 00:10:14 00:00:46 00:30:59 00:00:31 00:20:15
14 Rose Dillon 1998 NZL 19 01:02:58 00:10:49 00:00:58 00:30:15 00:00:36 00:20:20
15 Kim Kilgroe 1989 PHI 10 01:03:23 00:10:50 00:00:51 00:30:20 00:00:36 00:20:46
16 Erika Tanno 1989 JPN 17 01:04:51 00:10:51 00:00:54 00:33:30 00:00:35 00:19:01
17 Ayami Taketomo 1985 JPN 5 01:05:17 00:10:48 00:00:52 00:33:37 00:00:34 00:19:26
18 Yurina Kawasaki 1986 JPN 14 01:05:26 00:10:51 00:00:52 00:33:33 00:00:40 00:19:30
19 Ellie Hoitink 2000 AUS 21 01:05:43 00:10:48 00:00:54 00:33:33 00:00:36 00:19:52
20 Chika Sato 1986 JPN 16 01:06:02 00:10:53 00:00:49 00:33:35 00:00:40 00:20:05
21 Otono Maeda 1997 JPN 25 01:06:18 00:11:26 00:00:57 00:32:51 00:00:34 00:20:30
LAP Yoshiko Eda 1993 JPN 22 LAP 00:10:42 00:01:04 00:00:00 00:00:00 00:00:00
Program notes:

Technical Delegate: Sze Yuen Mo/HKG. Head Referee: Tsuyoshi Kakuta/JPN. Competition Jury: Sze Yuen Mo/HKG, Kiriyo Suzuki/JPN, Hiroshi Okamura/JPN.
Distances: Swim 750 m (1 lap), Swim 20 km (4 laps), Run 5 km (2 laps)
Water temperature 22.3°. Air temperature 23.6°. WBGT 27.0°. Humidity 84%. Wetsuits not allowed.